SBOSBO SZG / LOWS
Speedbird OnlineSpeedbird Online SZG / LOWS

Salzburg Airport
01:38 2.2°C

Location Salzburg, Austria
Latitude: 47.793300628699996
Longitude: 13.0043001175
Local Time 01:38 on 28 Feb 2024
UTC +1 hours (Europe/Vienna)
Currency £1 equals EUR 1.17
METAR LOWS 280020Z AUTO 17002KT 5000 BR NSC 01/00 Q1015
TAF TAF LOWS 272315Z 2800/2824 VRB03KT 9999 BKN020 TX08/2815Z TN03/2805Z TEMPO 2800/2824 4000 BKN010 TEMPO 2812/2818 34006KT
Weather As Of 28 Feb 2024 01:38
Description Mist
Wind 4 km/h from South (170°)
Cloud Cover 30%
Precipitation Rain: none, Snow: none
Sunrise 06:52
Sunset 17:49
NOTAM 6 active NOTAM
Rotations During the last 90 days there were
104 flights from LGW
37 flights from LHR
8 flights from LCY
103 flights to LGW
36 flights to LHR
7 flights to LCY
Lounges Business Lounge, International terminal
Web Airport Website | Wikipedia
Codes IATA: SZG
ICAO: LOWS
Altitude 430 Meter / 1411 Feet
Distance 1,012 KM / 629 Miles
from London.
Runways
RunwayLength (m)Surface
152750Concrete
332750Concrete
Radio
TypeDescriptionFrequency
APPAPP123.725
ATISATIS125.725
GNDGND121.75
TWRTWR118.1
Live ATC



Support Speedbird Online

© 2017-2024 Speedbird Online